Time;durP1;ratioP1;P1;durP2;ratioP2;P2;SDS_P1;SDS_P2;PMS_P1;PMS_P2;Temp;Humidity;BMP_temperature;BMP_pressure;BME280_temperature;BME280_humidity;BME280_pressure;Samples;Min_cycle;Max_cycle;Signal;HPM_P1;HPM_P2
2024/01/15 00:00:39;;;;;;;2.95;1.20;;;3.10;94.50;;;;;;5050069;28;20041;-32
2024/01/15 00:03:05;;;;;;;4.13;1.10;;;3.10;94.50;;;;;;5051259;28;20037;-30
2024/01/15 00:05:30;;;;;;;4.88;1.20;;;3.10;94.50;;;;;;5051301;28;20474;-29
2024/01/15 00:07:56;;;;;;;6.38;1.30;;;3.00;94.50;;;;;;5052560;28;20032;-30
2024/01/15 00:10:21;;;;;;;2.25;0.85;;;3.00;94.60;;;;;;5054070;28;20038;-29
2024/01/15 00:12:47;;;;;;;3.55;1.10;;;3.00;94.60;;;;;;5055317;28;20064;-33
2024/01/15 00:15:13;;;;;;;4.97;1.23;;;3.00;94.60;;;;;;5054279;28;20450;-30
2024/01/15 00:17:39;;;;;;;2.72;1.02;;;3.00;94.60;;;;;;5055224;28;20025;-29
2024/01/15 00:20:05;;;;;;;4.55;1.35;;;3.00;94.60;;;;;;5055329;28;20037;-29
2024/01/15 00:22:31;;;;;;;4.07;1.10;;;3.00;94.60;;;;;;5055085;28;20505;-30
2024/01/15 00:24:57;;;;;;;3.80;1.33;;;2.90;94.60;;;;;;5055029;28;20032;-29
2024/01/15 00:27:23;;;;;;;2.38;0.93;;;2.90;94.60;;;;;;5055224;28;20021;-31
2024/01/15 00:29:50;;;;;;;5.57;1.23;;;2.90;94.60;;;;;;5055483;28;20512;-30
2024/01/15 00:32:16;;;;;;;4.93;1.30;;;2.90;94.60;;;;;;5054972;28;20033;-30
2024/01/15 00:34:41;;;;;;;2.97;1.25;;;2.80;94.60;;;;;;5054992;28;20111;-29
2024/01/15 00:37:07;;;;;;;7.20;1.20;;;2.80;94.60;;;;;;5055306;28;20060;-30
2024/01/15 00:39:33;;;;;;;7.97;1.27;;;2.80;94.60;;;;;;5055153;28;20056;-30
2024/01/15 00:41:58;;;;;;;4.07;1.15;;;2.80;94.60;;;;;;5054852;28;20477;-31
2024/01/15 00:44:24;;;;;;;8.65;1.02;;;2.80;94.60;;;;;;5055149;28;20104;-30
2024/01/15 00:46:50;;;;;;;5.80;1.30;;;2.70;94.60;;;;;;5054833;28;20104;-28
2024/01/15 00:49:16;;;;;;;5.43;1.40;;;2.70;94.60;;;;;;5054668;28;20033;-30
2024/01/15 00:51:41;;;;;;;3.60;1.00;;;2.70;94.60;;;;;;5054918;28;20538;-30
2024/01/15 00:54:07;;;;;;;7.45;1.08;;;2.60;94.50;;;;;;5053177;28;20374;-29
2024/01/15 00:56:33;;;;;;;5.80;0.93;;;2.60;94.60;;;;;;5054597;28;20029;-30
2024/01/15 00:58:59;;;;;;;3.20;0.88;;;2.60;94.60;;;;;;5054594;28;20024;-30
2024/01/15 01:01:25;;;;;;;5.30;1.15;;;2.60;94.60;;;;;;5054364;28;20128;-29
2024/01/15 01:03:50;;;;;;;5.35;1.05;;;2.60;94.60;;;;;;5054600;28;20127;-34
2024/01/15 01:06:16;;;;;;;3.42;0.90;;;2.60;94.60;;;;;;5054209;28;20374;-34
2024/01/15 01:08:41;;;;;;;7.88;1.63;;;2.60;94.60;;;;;;5054647;28;20021;-29
2024/01/15 01:11:07;;;;;;;4.82;1.23;;;2.50;94.50;;;;;;5054434;28;20025;-32
2024/01/15 01:13:33;;;;;;;4.18;1.17;;;2.50;94.50;;;;;;5054176;28;20477;-30
2024/01/15 01:15:58;;;;;;;6.00;1.00;;;2.50;94.50;;;;;;5054540;28;20426;-31
2024/01/15 01:18:24;;;;;;;4.20;1.38;;;2.40;94.40;;;;;;5054088;28;20432;-30
2024/01/15 01:20:50;;;;;;;3.58;1.00;;;2.40;94.50;;;;;;5052929;28;20116;-30
2024/01/15 01:23:16;;;;;;;4.25;0.88;;;2.40;94.50;;;;;;5054382;28;20435;-30
2024/01/15 01:25:42;;;;;;;6.10;1.10;;;2.40;94.50;;;;;;5053924;28;20111;-31
2024/01/15 01:28:07;;;;;;;6.50;1.65;;;2.40;94.50;;;;;;5053890;28;20033;-30
2024/01/15 01:30:33;;;;;;;3.60;1.08;;;2.40;94.50;;;;;;5054239;28;20013;-30
2024/01/15 01:32:59;;;;;;;5.80;1.30;;;2.40;94.50;;;;;;5053843;28;20050;-33
2024/01/15 01:35:24;;;;;;;4.28;1.30;;;2.40;94.50;;;;;;5053697;28;20516;-30
2024/01/15 01:37:50;;;;;;;5.30;1.13;;;2.40;94.50;;;;;;5054118;28;20388;-30
2024/01/15 01:40:15;;;;;;;7.05;1.10;;;2.40;94.60;;;;;;5053854;28;20561;-32
2024/01/15 01:42:41;;;;;;;6.20;0.82;;;2.40;94.50;;;;;;5053643;28;20025;-35
2024/01/15 01:45:08;;;;;;;7.78;1.02;;;2.30;94.50;;;;;;5053628;28;20033;-33
2024/01/15 01:47:34;;;;;;;8.32;1.30;;;2.30;94.50;;;;;;5053695;28;20029;-31
2024/01/15 01:50:01;;;;;;;6.38;1.17;;;2.30;94.50;;;;;;5053620;28;20040;-30
2024/01/15 01:52:26;;;;;;;4.80;1.05;;;2.30;94.50;;;;;;5053572;28;20021;-32
2024/01/15 01:54:52;;;;;;;1.95;0.88;;;2.30;94.50;;;;;;5053657;28;20390;-28
2024/01/15 01:57:19;;;;;;;4.43;0.93;;;2.30;94.50;;;;;;5053589;28;20035;-29
2024/01/15 01:59:46;;;;;;;5.50;1.38;;;2.30;94.40;;;;;;5053765;28;20426;-28
2024/01/15 02:02:11;;;;;;;4.15;1.23;;;2.30;94.40;;;;;;5052858;28;20029;-30
2024/01/15 02:04:38;;;;;;;7.03;1.10;;;2.30;94.60;;;;;;5053468;28;20028;-31
2024/01/15 02:07:04;;;;;;;3.53;1.20;;;2.30;94.40;;;;;;5053465;28;20025;-29
2024/01/15 02:09:29;;;;;;;7.72;1.20;;;2.30;94.40;;;;;;5053423;28;20028;-30
2024/01/15 02:11:55;;;;;;;2.88;1.00;;;2.30;94.30;;;;;;5053056;28;20029;-31
2024/01/15 02:14:21;;;;;;;4.57;1.23;;;2.30;94.30;;;;;;5053414;28;20386;-30
2024/01/15 02:16:47;;;;;;;4.60;1.00;;;2.30;94.30;;;;;;5053319;28;20481;-30
2024/01/15 02:19:19;;;;;;;5.65;1.17;;;2.30;94.30;;;;;;5053296;28;20033;-32
2024/01/15 02:21:44;;;;;;;5.15;1.08;;;2.30;94.30;;;;;;5053045;28;20114;-30
2024/01/15 02:24:11;;;;;;;4.32;1.25;;;2.30;94.50;;;;;;5052987;28;20077;-32
2024/01/15 02:26:38;;;;;;;6.38;1.10;;;2.30;94.20;;;;;;5052963;28;20029;-30
2024/01/15 02:29:04;;;;;;;3.83;1.00;;;2.30;94.20;;;;;;5053016;28;20508;-29
2024/01/15 02:31:30;;;;;;;6.88;1.17;;;2.30;94.30;;;;;;5052437;28;20029;-36
2024/01/15 02:33:55;;;;;;;7.93;1.33;;;2.30;94.30;;;;;;5052639;28;20037;-33
2024/01/15 02:36:21;;;;;;;7.38;1.35;;;2.30;94.20;;;;;;5052673;28;20111;-33
2024/01/15 02:38:47;;;;;;;6.20;1.75;;;2.30;94.20;;;;;;5052718;28;20075;-37
2024/01/15 02:41:14;;;;;;;9.80;1.60;;;2.30;94.10;;;;;;5052677;28;20029;-32
2024/01/15 02:43:40;;;;;;;8.88;1.50;;;2.30;94.10;;;;;;5052865;28;20021;-32
2024/01/15 02:46:06;;;;;;;6.13;1.33;;;2.30;94.10;;;;;;5052574;28;20037;-36
2024/01/15 02:48:33;;;;;;;9.02;1.70;;;2.40;94.10;;;;;;5052500;28;20055;-30
2024/01/15 02:50:58;;;;;;;8.88;1.60;;;2.40;93.90;;;;;;5052846;28;20095;-33
2024/01/15 02:53:24;;;;;;;8.00;1.38;;;2.40;93.70;;;;;;5052626;28;20068;-31
2024/01/15 02:55:50;;;;;;;6.63;1.10;;;2.40;93.70;;;;;;5052449;28;20099;-31
2024/01/15 02:58:15;;;;;;;8.07;1.40;;;2.40;93.70;;;;;;5052249;28;20033;-32
2024/01/15 03:00:41;;;;;;;8.02;1.25;;;2.50;93.70;;;;;;5052487;28;20516;-32
2024/01/15 03:03:06;;;;;;;6.50;1.40;;;2.50;93.60;;;;;;5052114;28;20036;-30
2024/01/15 03:05:32;;;;;;;8.77;1.13;;;2.40;93.60;;;;;;5052056;28;20111;-32
2024/01/15 03:07:57;;;;;;;6.45;1.13;;;2.40;93.70;;;;;;5052338;28;20029;-31
2024/01/15 03:10:23;;;;;;;4.97;1.00;;;2.40;93.70;;;;;;5052122;28;20397;-31
2024/01/15 03:12:49;;;;;;;9.40;1.35;;;2.30;93.70;;;;;;5052187;28;20035;-31
2024/01/15 03:15:14;;;;;;;4.13;0.80;;;2.30;93.70;;;;;;5052031;28;20045;-30
2024/01/15 03:17:42;;;;;;;7.18;1.02;;;2.30;93.80;;;;;;5052001;28;20444;-31
2024/01/15 03:20:08;;;;;;;4.93;1.10;;;2.30;93.90;;;;;;5052187;28;20025;-33
2024/01/15 03:22:34;;;;;;;8.30;1.00;;;2.30;93.90;;;;;;5051942;28;20040;-31
2024/01/15 03:24:59;;;;;;;3.38;0.73;;;2.30;93.90;;;;;;5051783;28;20563;-38
2024/01/15 03:27:25;;;;;;;3.42;0.70;;;2.30;94.00;;;;;;5051991;28;20485;-33
2024/01/15 03:29:51;;;;;;;4.90;0.80;;;2.30;94.00;;;;;;5052074;28;20045;-33
2024/01/15 03:32:17;;;;;;;3.78;0.90;;;2.30;94.00;;;;;;5051896;28;20060;-34
2024/01/15 03:34:42;;;;;;;8.10;1.73;;;2.30;94.00;;;;;;5051625;28;20049;-32
2024/01/15 03:37:08;;;;;;;6.25;0.85;;;2.30;94.00;;;;;;5050572;28;20059;-33
2024/01/15 03:39:34;;;;;;;5.07;1.15;;;2.30;94.00;;;;;;5051974;28;20077;-35
2024/01/15 03:41:59;;;;;;;9.15;1.05;;;2.20;94.00;;;;;;5051098;28;20435;-33
2024/01/15 03:44:25;;;;;;;3.78;0.90;;;2.20;94.00;;;;;;5051544;28;20036;-30
2024/01/15 03:46:51;;;;;;;6.32;1.00;;;2.20;94.00;;;;;;5050284;28;20025;-41
2024/01/15 03:49:16;;;;;;;5.57;1.02;;;2.20;94.00;;;;;;5050503;28;20024;-32
2024/01/15 03:51:42;;;;;;;9.60;1.17;;;2.30;94.10;;;;;;5051481;28;20474;-32
2024/01/15 03:54:07;;;;;;;6.03;0.93;;;2.30;94.00;;;;;;5051497;28;20036;-35
2024/01/15 03:56:33;;;;;;;4.70;1.10;;;2.30;94.00;;;;;;5051495;28;20039;-35
2024/01/15 03:58:58;;;;;;;9.48;1.10;;;2.40;94.00;;;;;;5051375;28;20067;-31
2024/01/15 04:01:24;;;;;;;6.47;1.30;;;2.40;94.00;;;;;;5051258;28;20041;-30
2024/01/15 04:03:50;;;;;;;7.38;1.25;;;2.50;94.00;;;;;;5051331;28;20082;-31
2024/01/15 04:06:15;;;;;;;6.63;1.00;;;2.50;93.90;;;;;;5049822;28;20460;-31
2024/01/15 04:08:41;;;;;;;9.30;1.27;;;2.60;93.90;;;;;;5051580;28;20029;-30
2024/01/15 04:11:06;;;;;;;5.13;0.85;;;2.60;93.80;;;;;;5051610;28;20500;-30
2024/01/15 04:13:32;;;;;;;5.65;1.00;;;2.60;93.80;;;;;;5051180;28;20029;-31
2024/01/15 04:15:59;;;;;;;3.83;0.80;;;2.60;93.70;;;;;;5051295;28;20029;-30
2024/01/15 04:18:25;;;;;;;5.65;1.35;;;2.60;93.70;;;;;;5050035;28;20037;-31
2024/01/15 04:20:51;;;;;;;7.00;1.05;;;2.60;93.70;;;;;;5051184;28;20025;-29
2024/01/15 04:23:16;;;;;;;4.05;1.02;;;2.60;93.60;;;;;;5051131;28;20032;-31
2024/01/15 04:25:42;;;;;;;9.55;1.70;;;2.60;93.60;;;;;;5051064;28;20036;-30
2024/01/15 04:28:11;;;;;;;4.28;0.90;;;2.60;93.60;;;;;;5051029;28;20382;-30
2024/01/15 04:30:36;;;;;;;8.13;1.27;;;2.60;93.70;;;;;;5051522;28;20128;-31
2024/01/15 04:33:02;;;;;;;5.82;0.98;;;2.60;93.70;;;;;;5050843;28;20208;-29
2024/01/15 04:35:28;;;;;;;7.68;1.13;;;2.50;93.60;;;;;;5051088;28;20091;-30
2024/01/15 04:37:53;;;;;;;6.32;1.35;;;2.50;93.60;;;;;;5051015;28;20029;-30
2024/01/15 04:40:19;;;;;;;6.05;1.20;;;2.40;93.60;;;;;;5051334;28;20033;-32
2024/01/15 04:42:47;;;;;;;8.95;1.48;;;2.40;93.70;;;;;;5051084;28;20028;-29
2024/01/15 04:45:13;;;;;;;5.30;1.45;;;2.40;93.70;;;;;;5051136;28;20117;-29
2024/01/15 04:47:39;;;;;;;7.13;1.15;;;2.30;93.70;;;;;;5049642;28;20029;-32
2024/01/15 04:50:05;;;;;;;5.22;1.58;;;2.20;93.70;;;;;;5051300;28;20087;-28
2024/01/15 04:52:31;;;;;;;12.32;1.58;;;2.20;93.70;;;;;;5050749;28;20061;-31
2024/01/15 04:54:57;;;;;;;5.78;1.50;;;2.20;93.80;;;;;;5053632;28;20452;-29
2024/01/15 04:57:22;;;;;;;9.65;1.60;;;2.20;93.80;;;;;;5054615;28;20025;-30
2024/01/15 04:59:48;;;;;;;5.72;1.30;;;2.20;93.90;;;;;;5054652;28;20029;-29
2024/01/15 05:02:13;;;;;;;6.05;1.40;;;2.20;93.90;;;;;;5054283;28;20025;-32
2024/01/15 05:04:39;;;;;;;10.27;1.48;;;2.10;93.90;;;;;;5054405;28;20058;-31
2024/01/15 05:07:05;;;;;;;5.57;1.40;;;2.20;94.00;;;;;;5054665;28;20029;-30
2024/01/15 05:09:30;;;;;;;4.25;1.58;;;2.20;94.00;;;;;;5054589;28;20032;-31
2024/01/15 05:11:56;;;;;;;5.28;1.75;;;2.20;94.00;;;;;;5054456;28;20366;-29
2024/01/15 05:14:22;;;;;;;8.05;1.50;;;2.20;93.90;;;;;;5054259;28;20135;-29
2024/01/15 05:16:48;;;;;;;6.78;1.20;;;2.20;93.90;;;;;;5054295;28;20350;-33
2024/01/15 05:19:13;;;;;;;9.95;1.63;;;2.20;93.90;;;;;;5054043;28;20033;-30
2024/01/15 05:21:39;;;;;;;6.53;1.40;;;2.20;93.90;;;;;;5054358;28;20040;-34
2024/01/15 05:24:05;;;;;;;5.55;1.55;;;2.20;93.90;;;;;;5054088;28;20428;-29
2024/01/15 05:26:30;;;;;;;7.25;1.40;;;2.20;93.90;;;;;;5052273;28;20036;-30
2024/01/15 05:28:56;;;;;;;5.00;1.55;;;2.30;94.00;;;;;;5054108;28;20029;-30
2024/01/15 05:31:22;;;;;;;8.05;1.52;;;2.30;93.90;;;;;;5054174;28;20044;-29
2024/01/15 05:33:47;;;;;;;9.43;1.52;;;2.30;93.90;;;;;;5053768;28;20431;-31
2024/01/15 05:36:13;;;;;;;7.65;1.30;;;2.30;93.90;;;;;;5053764;28;20036;-29
2024/01/15 05:38:39;;;;;;;11.27;1.38;;;2.40;93.80;;;;;;5054180;28;20040;-29
2024/01/15 05:41:05;;;;;;;9.65;1.63;;;2.40;93.80;;;;;;5053754;28;20068;-30
2024/01/15 05:43:31;;;;;;;5.70;1.23;;;2.40;93.80;;;;;;5053577;28;20037;-31
2024/01/15 05:45:56;;;;;;;7.68;1.00;;;2.40;93.80;;;;;;5053678;28;20033;-29
2024/01/15 05:48:22;;;;;;;5.32;1.50;;;2.40;93.80;;;;;;5053686;28;20029;-29
2024/01/15 05:50:47;;;;;;;3.65;1.20;;;2.40;93.80;;;;;;5053850;28;20021;-28
2024/01/15 05:53:13;;;;;;;5.18;1.20;;;2.50;93.80;;;;;;5053749;28;20020;-31
2024/01/15 05:55:39;;;;;;;4.35;0.93;;;2.50;93.80;;;;;;5052146;28;20036;-35
2024/01/15 05:58:05;;;;;;;3.47;1.10;;;2.50;93.70;;;;;;5053718;28;20056;-29
2024/01/15 06:00:32;;;;;;;5.10;1.33;;;2.50;93.80;;;;;;5053635;28;20037;-32
2024/01/15 06:02:58;;;;;;;8.00;1.83;;;2.50;93.80;;;;;;5053435;28;20102;-30
2024/01/15 06:05:24;;;;;;;6.18;1.50;;;2.50;93.80;;;;;;5052498;28;20052;-30
2024/01/15 06:07:49;;;;;;;4.75;1.20;;;2.50;93.80;;;;;;5053391;28;20033;-31
2024/01/15 06:10:15;;;;;;;6.40;1.70;;;2.50;93.80;;;;;;5053301;28;20538;-29
2024/01/15 06:12:40;;;;;;;2.83;1.20;;;2.50;93.80;;;;;;5053166;28;20032;-30
2024/01/15 06:15:06;;;;;;;4.40;1.30;;;2.50;93.80;;;;;;5053465;28;20468;-32
2024/01/15 06:17:32;;;;;;;4.85;1.85;;;2.60;93.80;;;;;;5053361;28;20036;-30
2024/01/15 06:19:58;;;;;;;4.15;1.30;;;2.60;93.80;;;;;;5051784;28;20040;-29
2024/01/15 06:22:24;;;;;;;3.70;1.40;;;2.60;93.80;;;;;;5052877;28;20029;-30
2024/01/15 06:24:49;;;;;;;7.55;1.67;;;2.60;93.80;;;;;;5052724;28;20083;-30
2024/01/15 06:27:15;;;;;;;4.28;1.20;;;2.60;93.80;;;;;;5052783;28;20074;-29
2024/01/15 06:29:47;;;;;;;4.40;1.48;;;2.70;93.80;;;;;;5052955;28;20104;-29
2024/01/15 06:32:12;;;;;;;5.20;1.60;;;2.60;93.70;;;;;;5053077;28;20028;-32
2024/01/15 06:34:38;;;;;;;2.20;1.05;;;2.70;93.80;;;;;;5052716;28;20047;-28
2024/01/15 06:37:03;;;;;;;3.45;1.58;;;2.70;93.80;;;;;;5053098;28;20025;-38
2024/01/15 06:39:29;;;;;;;4.78;1.52;;;2.70;93.80;;;;;;5052802;28;20341;-30
2024/01/15 06:41:55;;;;;;;3.17;1.40;;;2.70;93.80;;;;;;5052492;28;20021;-29
2024/01/15 06:44:21;;;;;;;2.97;1.35;;;2.70;93.80;;;;;;5052621;28;20036;-33
2024/01/15 06:46:47;;;;;;;6.10;1.80;;;2.70;93.70;;;;;;5052459;28;20120;-34
2024/01/15 06:49:13;;;;;;;2.97;1.65;;;2.70;93.70;;;;;;5052464;28;20029;-34
2024/01/15 06:51:39;;;;;;;1.65;1.27;;;2.70;93.70;;;;;;5052388;28;20504;-30
2024/01/15 06:54:05;;;;;;;3.05;1.33;;;2.70;93.70;;;;;;5052243;28;20025;-29
2024/01/15 06:56:34;;;;;;;3.20;1.35;;;2.60;93.70;;;;;;5052333;28;20039;-31
2024/01/15 06:58:59;;;;;;;4.15;1.38;;;2.60;93.70;;;;;;5052166;28;20033;-29
2024/01/15 07:01:25;;;;;;;2.53;1.33;;;2.60;93.70;;;;;;5052081;28;20036;-30
2024/01/15 07:03:50;;;;;;;2.20;1.00;;;2.60;93.70;;;;;;5052558;28;20025;-30
2024/01/15 07:06:17;;;;;;;2.63;1.50;;;2.60;93.80;;;;;;5052088;28;20025;-32
2024/01/15 07:08:42;;;;;;;5.15;2.10;;;2.60;93.80;;;;;;5052301;28;20057;-30
2024/01/15 07:11:08;;;;;;;1.52;1.42;;;2.60;93.80;;;;;;5052196;28;20056;-34
2024/01/15 07:13:35;;;;;;;4.03;1.80;;;2.60;93.80;;;;;;5052266;28;20075;-30
2024/01/15 07:16:01;;;;;;;15.02;3.53;;;2.60;93.80;;;;;;5050667;28;20040;-32
2024/01/15 07:18:27;;;;;;;5.63;3.58;;;2.60;93.80;;;;;;5051160;28;20036;-30
2024/01/15 07:20:52;;;;;;;7.40;4.25;;;2.60;93.80;;;;;;5052261;28;20120;-32
2024/01/15 07:23:18;;;;;;;6.70;4.32;;;2.60;93.80;;;;;;5052234;28;20072;-31
2024/01/15 07:25:43;;;;;;;16.42;6.03;;;2.50;93.80;;;;;;5052025;28;20438;-30
2024/01/15 07:28:09;;;;;;;10.02;5.20;;;2.50;93.80;;;;;;5051693;28;20028;-30
2024/01/15 07:30:35;;;;;;;6.18;4.63;;;2.40;93.90;;;;;;5051995;28;20025;-32
2024/01/15 07:33:01;;;;;;;6.50;4.68;;;2.40;93.90;;;;;;5051733;28;20043;-30
2024/01/15 07:35:27;;;;;;;9.75;4.88;;;2.40;93.90;;;;;;5051477;28;20555;-30
2024/01/15 07:37:52;;;;;;;7.13;4.90;;;2.40;93.90;;;;;;5051798;28;20044;-31
2024/01/15 07:40:18;;;;;;;6.40;4.57;;;2.40;93.90;;;;;;5051782;28;20079;-33
2024/01/15 07:42:43;;;;;;;7.05;5.05;;;2.40;94.00;;;;;;5051588;28;20021;-33
2024/01/15 07:45:10;;;;;;;5.40;4.60;;;2.40;94.00;;;;;;5051680;28;20035;-30
2024/01/15 07:47:36;;;;;;;6.18;4.53;;;2.40;94.00;;;;;;5051824;28;20024;-29
2024/01/15 07:50:01;;;;;;;5.70;4.78;;;2.40;94.00;;;;;;5051928;28;20031;-31
2024/01/15 07:52:27;;;;;;;8.68;4.55;;;2.40;94.00;;;;;;5051447;28;20104;-37
2024/01/15 07:54:53;;;;;;;7.45;5.22;;;2.40;94.10;;;;;;5051577;28;20464;-30
2024/01/15 07:57:18;;;;;;;5.65;4.65;;;2.40;94.10;;;;;;5051475;28;20499;-34
2024/01/15 07:59:44;;;;;;;5.95;5.18;;;2.40;94.00;;;;;;5051440;28;20116;-30
2024/01/15 08:02:09;;;;;;;5.88;4.63;;;2.40;94.10;;;;;;5051710;28;20025;-31
2024/01/15 08:04:37;;;;;;;6.03;4.53;;;2.40;94.10;;;;;;5051697;28;20064;-31
2024/01/15 08:07:04;;;;;;;6.20;5.10;;;2.50;94.10;;;;;;5051756;28;20377;-29
2024/01/15 08:09:29;;;;;;;7.60;5.75;;;2.50;94.10;;;;;;5051702;28;20477;-31
2024/01/15 08:11:55;;;;;;;5.38;4.68;;;2.50;94.10;;;;;;5051244;28;20028;-30
2024/01/15 08:14:20;;;;;;;5.40;4.40;;;2.50;94.00;;;;;;5051344;28;20051;-33
2024/01/15 08:16:46;;;;;;;4.95;4.20;;;2.50;94.00;;;;;;5051323;28;20028;-29
2024/01/15 08:19:12;;;;;;;4.85;4.25;;;2.50;94.00;;;;;;5051391;28;20041;-29
2024/01/15 08:21:37;;;;;;;3.97;3.45;;;2.60;94.00;;;;;;5051163;28;20084;-29
2024/01/15 08:24:03;;;;;;;3.47;3.08;;;2.60;94.00;;;;;;5051095;28;20025;-30
2024/01/15 08:26:29;;;;;;;4.13;3.50;;;2.60;94.00;;;;;;5051444;28;20102;-31
2024/01/15 08:28:55;;;;;;;3.72;3.22;;;2.60;94.00;;;;;;5052344;28;20029;-30
2024/01/15 08:31:20;;;;;;;3.22;2.83;;;2.70;94.30;;;;;;5055210;28;20032;-32
2024/01/15 08:33:46;;;;;;;3.25;2.60;;;2.70;94.00;;;;;;5053650;28;20158;-29
2024/01/15 08:36:12;;;;;;;2.85;2.25;;;2.70;94.00;;;;;;5055088;28;20108;-35
2024/01/15 08:38:38;;;;;;;3.45;2.35;;;2.70;94.00;;;;;;5055608;28;20075;-32
2024/01/15 08:41:04;;;;;;;3.00;2.15;;;2.70;93.90;;;;;;5055308;28;20108;-33
2024/01/15 08:43:31;;;;;;;3.08;2.08;;;2.70;93.90;;;;;;5054854;28;20078;-32
2024/01/15 08:45:57;;;;;;;2.33;1.90;;;2.70;93.90;;;;;;5055085;28;20071;-29
2024/01/15 08:48:22;;;;;;;2.63;2.03;;;2.80;93.90;;;;;;5054897;28;20092;-31
2024/01/15 08:50:48;;;;;;;2.95;2.10;;;2.80;93.90;;;;;;5053449;28;20079;-29
2024/01/15 08:53:14;;;;;;;3.08;1.83;;;2.80;93.90;;;;;;5054877;28;20045;-29
2024/01/15 08:55:42;;;;;;;6.28;2.30;;;2.80;93.90;;;;;;5054761;28;20025;-36
2024/01/15 08:58:07;;;;;;;2.72;1.88;;;2.80;93.90;;;;;;5053490;28;20072;-29
2024/01/15 09:00:33;;;;;;;4.68;2.47;;;2.80;93.90;;;;;;5054660;28;20229;-30
2024/01/15 09:02:59;;;;;;;4.10;2.65;;;2.80;93.90;;;;;;5054546;28;20028;-31
2024/01/15 09:05:25;;;;;;;4.90;2.17;;;2.80;93.80;;;;;;5054549;28;20028;-30
2024/01/15 09:07:51;;;;;;;4.13;2.10;;;2.80;93.80;;;;;;5055077;28;20044;-30
2024/01/15 09:10:18;;;;;;;2.88;2.00;;;2.70;93.70;;;;;;5053158;28;20501;-30
2024/01/15 09:12:43;;;;;;;2.30;1.85;;;2.70;93.70;;;;;;5054645;28;20032;-30
2024/01/15 09:15:09;;;;;;;2.80;1.75;;;2.70;93.80;;;;;;5054689;28;20020;-32
2024/01/15 09:17:35;;;;;;;3.40;1.88;;;2.70;93.90;;;;;;5054305;28;20025;-29
2024/01/15 09:20:00;;;;;;;5.35;2.00;;;2.80;93.80;;;;;;5054484;28;20471;-29
2024/01/15 09:22:26;;;;;;;3.95;2.40;;;2.80;94.10;;;;;;5054192;28;20047;-31
2024/01/15 09:24:52;;;;;;;4.95;2.50;;;2.80;93.80;;;;;;5054270;28;20021;-32
2024/01/15 09:27:18;;;;;;;4.45;2.97;;;2.80;93.80;;;;;;5054358;28;20027;-28
2024/01/15 09:29:45;;;;;;;5.43;2.88;;;2.80;93.70;;;;;;5053140;28;20024;-29
2024/01/15 09:32:12;;;;;;;6.88;2.83;;;2.90;93.80;;;;;;5054185;28;20097;-29
2024/01/15 09:34:38;;;;;;;6.57;3.22;;;2.90;93.70;;;;;;5054404;28;20473;-29
2024/01/15 09:37:04;;;;;;;4.60;2.90;;;2.90;93.70;;;;;;5054166;28;20079;-32
2024/01/15 09:39:30;;;;;;;6.90;3.58;;;2.90;93.70;;;;;;5053829;28;20021;-34
2024/01/15 09:41:57;;;;;;;5.10;2.83;;;2.90;93.70;;;;;;5053044;28;20023;-31
2024/01/15 09:44:23;;;;;;;4.22;3.20;;;3.00;93.70;;;;;;5054112;28;20021;-31
2024/01/15 09:46:52;;;;;;;4.47;3.15;;;3.00;93.70;;;;;;5054076;28;20037;-30
2024/01/15 09:49:18;;;;;;;6.55;3.05;;;3.00;93.60;;;;;;5053692;28;20100;-31
2024/01/15 09:51:45;;;;;;;3.60;2.95;;;3.00;93.50;;;;;;5053722;28;20096;-34
2024/01/15 09:54:13;;;;;;;6.68;2.85;;;3.00;93.50;;;;;;5053656;28;20025;-31
2024/01/15 09:56:39;;;;;;;6.30;2.65;;;3.10;93.60;;;;;;5053714;28;20119;-31
2024/01/15 09:59:05;;;;;;;3.28;2.08;;;3.10;93.40;;;;;;5053486;28;20112;-31
2024/01/15 10:01:36;;;;;;;5.90;2.00;;;3.10;93.40;;;;;;5053431;28;20029;-31
2024/01/15 10:04:02;;;;;;;3.30;2.08;;;3.00;93.40;;;;;;5053567;28;20497;-31
2024/01/15 10:06:28;;;;;;;3.75;1.88;;;3.00;93.30;;;;;;5053596;28;20059;-30
2024/01/15 10:08:54;;;;;;;5.00;1.70;;;2.90;93.30;;;;;;5053371;28;20421;-31
2024/01/15 10:11:20;;;;;;;5.05;1.48;;;2.90;93.40;;;;;;5053653;28;20021;-31
2024/01/15 10:13:46;;;;;;;3.92;1.60;;;2.80;93.50;;;;;;5053190;28;20441;-30
2024/01/15 10:16:12;;;;;;;4.18;1.60;;;2.80;93.60;;;;;;5053534;28;20032;-33
2024/01/15 10:18:39;;;;;;;4.18;1.65;;;2.90;93.60;;;;;;5053855;28;20377;-34
2024/01/15 10:21:07;;;;;;;4.18;1.52;;;2.90;93.50;;;;;;5053418;28;20485;-31
2024/01/15 10:23:32;;;;;;;3.28;1.60;;;3.00;93.70;;;;;;5053268;28;20021;-32
2024/01/15 10:25:58;;;;;;;3.13;1.85;;;3.20;93.60;;;;;;5052944;28;20520;-33
2024/01/15 10:28:26;;;;;;;3.38;1.85;;;3.30;93.50;;;;;;5052964;28;20335;-30
2024/01/15 10:30:56;;;;;;;10.38;1.95;;;3.40;93.30;;;;;;5052961;28;20014;-31
2024/01/15 10:33:26;;;;;;;41.08;3.58;;;3.40;92.80;;;;;;5052809;28;20048;-30
2024/01/15 10:35:56;;;;;;;3.58;1.63;;;3.30;92.80;;;;;;5053057;28;20024;-34
2024/01/15 10:38:22;;;;;;;2.65;1.55;;;3.30;92.90;;;;;;5053166;28;20053;-40
2024/01/15 10:40:53;;;;;;;6.05;2.15;;;3.20;92.90;;;;;;5052973;28;20083;-31
2024/01/15 10:43:18;;;;;;;5.00;1.23;;;3.20;93.00;;;;;;5052910;28;20469;-31
2024/01/15 10:45:48;;;;;;;3.08;1.50;;;3.20;93.10;;;;;;5052516;28;20067;-30
2024/01/15 10:48:16;;;;;;;4.63;2.67;;;3.20;93.10;;;;;;5052591;28;20112;-32
2024/01/15 10:50:41;;;;;;;7.05;2.28;;;3.10;93.00;;;;;;5052826;28;20509;-31
2024/01/15 10:53:09;;;;;;;7.63;2.10;;;3.10;93.00;;;;;;5052200;28;20017;-29
2024/01/15 10:55:37;;;;;;;5.40;2.20;;;3.10;93.00;;;;;;5053221;28;20072;-44
2024/01/15 10:58:03;;;;;;;2.97;2.00;;;3.10;93.20;;;;;;5052276;28;20029;-44
2024/01/15 11:00:29;;;;;;;5.78;2.42;;;3.20;93.30;;;;;;5052146;28;20021;-45
2024/01/15 11:02:55;;;;;;;3.92;2.20;;;3.40;93.10;;;;;;5052273;28;20359;-44
2024/01/15 11:05:24;;;;;;;5.20;2.25;;;3.40;92.90;;;;;;5052287;28;20040;-44
2024/01/15 11:07:50;;;;;;;2.95;2.10;;;3.30;92.90;;;;;;5052459;28;20017;-32
2024/01/15 11:10:46;;;;;;;4.90;2.20;;;3.30;92.90;;;;;;5052372;28;20147;-32
2024/01/15 11:13:20;;;;;;;9.07;2.60;;;3.20;92.90;;;;;;5052319;28;20021;-34
2024/01/15 11:16:00;;;;;;;6.57;2.30;;;3.20;92.90;;;;;;5052384;28;20032;-33
2024/01/15 11:18:35;;;;;;;4.15;1.88;;;3.10;92.90;;;;;;5052266;28;20420;-33
2024/01/15 11:21:16;;;;;;;5.10;2.10;;;3.00;93.00;;;;;;5052029;28;20041;-36
2024/01/15 11:23:53;;;;;;;5.15;2.00;;;3.00;93.10;;;;;;5052059;28;20025;-34
2024/01/15 11:26:31;;;;;;;4.75;1.65;;;3.10;93.20;;;;;;5051668;28;20025;-33
2024/01/15 11:29:02;;;;;;;3.88;2.00;;;3.20;93.20;;;;;;5050375;28;20424;-32
2024/01/15 11:31:49;;;;;;;3.25;1.73;;;3.30;93.20;;;;;;5052051;28;20481;-32
2024/01/15 11:34:15;;;;;;;7.32;2.15;;;3.30;93.10;;;;;;5047426;28;20086;-33
2024/01/15 11:36:49;;;;;;;5.00;1.90;;;3.30;93.00;;;;;;5051717;28;20017;-34
2024/01/15 11:39:27;;;;;;;4.78;1.63;;;3.30;93.00;;;;;;5051876;28;20099;-32
2024/01/15 11:41:58;;;;;;;7.38;1.80;;;3.30;92.90;;;;;;5051481;28;20481;-35
2024/01/15 11:44:23;;;;;;;6.00;1.70;;;3.30;92.90;;;;;;5051654;28;20473;-34
2024/01/15 11:47:03;;;;;;;4.82;1.70;;;3.30;93.00;;;;;;5051612;28;20068;-33
2024/01/15 11:49:50;;;;;;;4.63;1.90;;;3.40;93.00;;;;;;5051382;28;20031;-34
2024/01/15 11:52:18;;;;;;;5.03;1.92;;;3.50;93.00;;;;;;5051373;28;20100;-40
2024/01/15 11:55:10;;;;;;;4.03;1.92;;;3.50;92.80;;;;;;5051826;28;20013;-36
2024/01/15 11:57:46;;;;;;;4.43;1.83;;;3.50;92.80;;;;;;5051406;28;20104;-38
2024/01/15 12:00:13;;;;;;;5.90;2.00;;;3.50;92.90;;;;;;5051831;28;20378;-32
2024/01/15 12:02:43;;;;;;;8.48;2.65;;;3.40;92.80;;;;;;5051357;28;20028;-33
2024/01/15 12:05:09;;;;;;;5.30;1.77;;;3.40;92.80;;;;;;5057748;28;20475;-35
2024/01/15 12:07:35;;;;;;;5.88;1.60;;;3.30;92.80;;;;;;5058118;28;20020;-32
2024/01/15 12:10:02;;;;;;;7.10;2.20;;;3.40;92.90;;;;;;5058121;28;20028;-32
2024/01/15 12:12:39;;;;;;;6.18;2.00;;;3.40;92.90;;;;;;5057914;28;20025;-37
2024/01/15 12:15:05;;;;;;;4.40;1.40;;;3.50;93.00;;;;;;5057930;28;20033;-34
2024/01/15 12:17:31;;;;;;;5.22;1.52;;;3.60;92.90;;;;;;5058021;28;20070;-33
2024/01/15 12:19:57;;;;;;;5.55;1.52;;;3.60;92.90;;;;;;5058001;28;20381;-32
2024/01/15 12:22:22;;;;;;;5.90;1.67;;;3.70;92.70;;;;;;5057830;28;20032;-34
2024/01/15 12:24:48;;;;;;;4.35;1.35;;;3.80;92.70;;;;;;5057952;28;20520;-35
2024/01/15 12:27:14;;;;;;;3.83;1.27;;;3.90;92.50;;;;;;5057952;28;20025;-32
2024/01/15 12:29:39;;;;;;;6.25;1.73;;;4.00;92.50;;;;;;5057911;28;20025;-35
2024/01/15 12:32:06;;;;;;;5.75;1.45;;;4.10;92.30;;;;;;5057962;28;20017;-31
2024/01/15 12:34:32;;;;;;;4.07;1.20;;;4.10;92.00;;;;;;5057419;28;20037;-32
2024/01/15 12:36:58;;;;;;;4.07;1.15;;;4.10;92.00;;;;;;5057955;28;20033;-32
2024/01/15 12:39:25;;;;;;;5.25;1.70;;;4.10;92.10;;;;;;5057988;28;20036;-34
2024/01/15 12:41:51;;;;;;;4.68;1.10;;;4.10;92.00;;;;;;5057769;28;20317;-35
2024/01/15 12:44:17;;;;;;;4.53;1.13;;;4.10;91.80;;;;;;5057890;28;20440;-35
2024/01/15 12:46:42;;;;;;;3.13;1.15;;;4.00;91.90;;;;;;5057672;28;20025;-33
2024/01/15 12:49:08;;;;;;;4.47;1.33;;;3.80;91.80;;;;;;5057728;28;20028;-34
2024/01/15 12:51:38;;;;;;;3.47;1.33;;;3.70;92.00;;;;;;5057900;28;20048;-35
2024/01/15 12:54:04;;;;;;;2.30;1.00;;;3.70;92.20;;;;;;5056191;28;20032;-32